Time;durP1;ratioP1;P1;durP2;ratioP2;P2;SDS_P1;SDS_P2;PMS_P1;PMS_P2;Temp;Humidity;BMP_temperature;BMP_pressure;BME280_temperature;BME280_humidity;BME280_pressure;Samples;Min_cycle;Max_cycle;Signal;HPM_P1;HPM_P2
2023/02/26 00:01:01;;;;;;;6.05;1.08;;;;;;;3.47;100.00;101869.25;5053577;28;20039;-49
2023/02/26 00:03:26;;;;;;;8.32;1.17;;;;;;;3.39;100.00;101872.47;5071290;28;20032;-49
2023/02/26 00:05:52;;;;;;;6.93;1.17;;;;;;;3.41;100.00;101872.38;5071066;28;20052;-49
2023/02/26 00:08:17;;;;;;;1.75;0.80;;;;;;;3.43;100.00;101883.75;5070945;28;20105;-49
2023/02/26 00:10:42;;;;;;;5.95;1.02;;;;;;;3.42;100.00;101887.34;5071078;28;20031;-49
2023/02/26 00:13:09;;;;;;;5.85;0.90;;;;;;;3.39;100.00;101882.25;5070973;28;20111;-50
2023/02/26 00:15:35;;;;;;;3.75;0.80;;;;;;;3.37;100.00;101884.19;5036237;28;20027;-51
2023/02/26 00:18:05;;;;;;;6.93;1.05;;;;;;;3.37;100.00;101890.38;5070568;28;20033;-51
2023/02/26 00:20:30;;;;;;;7.13;1.10;;;;;;;3.28;100.00;101891.84;5070714;28;20561;-50
2023/02/26 00:22:56;;;;;;;7.60;1.23;;;;;;;3.25;100.00;101900.06;5052495;28;20032;-52
2023/02/26 00:25:21;;;;;;;14.00;1.30;;;;;;;3.25;100.00;101901.88;5070297;28;20052;-49
2023/02/26 00:27:47;;;;;;;3.80;0.80;;;;;;;3.24;100.00;101906.34;5070421;28;20380;-50
2023/02/26 00:30:13;;;;;;;7.30;1.17;;;;;;;3.27;100.00;101906.13;5070282;28;20245;-51
2023/02/26 00:32:39;;;;;;;5.65;1.20;;;;;;;3.29;100.00;101906.88;5070647;28;20153;-51
2023/02/26 00:35:10;;;;;;;5.25;0.88;;;;;;;3.26;100.00;101915.06;5070321;28;20024;-50
2023/02/26 00:37:38;;;;;;;2.75;0.70;;;;;;;3.24;100.00;101911.69;5052279;28;20024;-49
2023/02/26 00:40:20;;;;;;;4.40;0.80;;;;;;;3.24;100.00;101919.66;5052174;28;20422;-51
2023/02/26 00:42:46;;;;;;;8.82;1.20;;;;;;;3.22;100.00;101923.38;5052604;28;20059;-52
2023/02/26 00:45:12;;;;;;;7.25;0.90;;;;;;;3.27;100.00;101927.41;5052143;28;20119;-52
2023/02/26 00:47:38;;;;;;;4.93;0.88;;;;;;;3.26;100.00;101923.03;5052214;28;20025;-51
2023/02/26 00:50:17;;;;;;;5.22;1.00;;;;;;;3.30;100.00;101927.19;5051923;28;20036;-50
2023/02/26 00:53:06;;;;;;;1.88;0.70;;;;;;;3.33;100.00;101935.94;5070464;28;20059;-50
2023/02/26 00:55:32;;;;;;;10.75;1.30;;;;;;;3.38;100.00;101947.09;5070821;28;20034;-49
2023/02/26 00:57:57;;;;;;;5.40;1.10;;;;;;;3.32;100.00;101951.06;5070332;28;20020;-50
2023/02/26 01:00:22;;;;;;;3.78;1.30;;;;;;;3.30;100.00;101947.63;5070159;28;20029;-51
2023/02/26 01:02:48;;;;;;;6.93;0.80;;;;;;;3.36;100.00;101946.34;5070329;28;20449;-49
2023/02/26 01:05:14;;;;;;;5.05;0.80;;;;;;;3.40;100.00;101950.50;5070140;28;20036;-50
2023/02/26 01:07:46;;;;;;;10.05;0.85;;;;;;;3.36;100.00;101949.84;5069969;28;20502;-50
2023/02/26 01:10:13;;;;;;;4.35;0.95;;;;;;;3.39;100.00;101956.78;5054114;28;20120;-50
2023/02/26 01:12:39;;;;;;;2.40;0.70;;;;;;;3.40;100.00;101958.50;5074135;28;20475;-50
2023/02/26 01:15:05;;;;;;;4.47;0.95;;;;;;;3.44;100.00;101965.28;5073883;28;20032;-51
2023/02/26 01:17:32;;;;;;;14.10;1.30;;;;;;;3.44;100.00;101959.97;5074112;28;20037;-50
2023/02/26 01:20:01;;;;;;;6.07;1.15;;;;;;;3.42;100.00;101967.19;5073607;28;20027;-50
2023/02/26 01:22:45;;;;;;;9.07;1.27;;;;;;;3.43;100.00;101966.25;5073897;28;20028;-50
2023/02/26 01:25:14;;;;;;;5.50;1.15;;;;;;;3.39;100.00;101970.94;5055651;28;20024;-52
2023/02/26 01:27:39;;;;;;;4.53;0.90;;;;;;;3.38;100.00;101976.38;5055770;28;20075;-49
2023/02/26 01:30:07;;;;;;;2.63;0.60;;;;;;;3.33;100.00;101978.50;5073934;28;20111;-51
2023/02/26 01:32:47;;;;;;;6.85;0.90;;;;;;;3.27;98.65;101977.97;5055608;28;20040;-49
2023/02/26 01:35:34;;;;;;;3.15;1.15;;;;;;;3.28;98.07;101984.97;5073461;28;20368;-49
2023/02/26 01:38:19;;;;;;;8.15;0.88;;;;;;;3.22;98.20;101977.44;5055586;28;20033;-49
2023/02/26 01:40:45;;;;;;;6.50;0.90;;;;;;;3.23;97.08;101984.44;5055374;28;20035;-51
2023/02/26 01:43:17;;;;;;;9.60;1.70;;;;;;;3.19;97.19;101987.44;5055625;28;20032;-49
2023/02/26 01:45:53;;;;;;;4.63;1.33;;;;;;;3.12;97.44;101992.31;5073729;28;20031;-49
2023/02/26 01:48:30;;;;;;;8.02;1.40;;;;;;;3.08;97.18;101990.81;5073424;28;20085;-50
2023/02/26 01:50:56;;;;;;;12.10;1.75;;;;;;;3.10;97.08;101988.91;5055454;28;20024;-51
2023/02/26 01:53:25;;;;;;;8.52;1.02;;;;;;;3.06;97.18;101992.75;5073460;28;20082;-49
2023/02/26 01:56:00;;;;;;;5.60;1.30;;;;;;;3.02;97.34;101991.25;5073101;28;20082;-50
2023/02/26 01:58:28;;;;;;;8.25;1.02;;;;;;;2.98;96.73;101995.94;5055082;28;20024;-50
2023/02/26 02:00:53;;;;;;;6.93;0.93;;;;;;;2.97;96.30;102002.19;5073169;28;20036;-51
2023/02/26 02:03:21;;;;;;;5.18;0.93;;;;;;;2.89;97.05;102003.66;5055287;28;20024;-51
2023/02/26 02:05:50;;;;;;;5.18;1.70;;;;;;;2.80;97.22;102000.69;5054733;28;20360;-50
2023/02/26 02:08:16;;;;;;;7.22;1.08;;;;;;;2.73;97.13;102006.50;5055301;28;20493;-50
2023/02/26 02:10:43;;;;;;;13.27;1.92;;;;;;;2.65;97.73;102009.69;5054888;28;20025;-50
2023/02/26 02:13:46;;;;;;;7.40;1.20;;;;;;;2.63;96.78;102016.88;5073046;28;20047;-53
2023/02/26 02:16:20;;;;;;;5.72;1.17;;;;;;;2.53;97.06;102021.13;5072586;28;20020;-51
2023/02/26 02:18:55;;;;;;;4.85;1.00;;;;;;;2.48;97.54;102012.63;5054943;28;20048;-51
2023/02/26 02:21:28;;;;;;;5.32;0.93;;;;;;;2.44;97.86;102019.06;5054471;28;20472;-50
2023/02/26 02:24:12;;;;;;;8.55;1.33;;;;;;;2.42;96.59;102024.47;5054879;28;20322;-51
2023/02/26 02:26:55;;;;;;;4.28;0.98;;;;;;;2.38;97.21;102033.59;5072771;28;20029;-50
2023/02/26 02:29:39;;;;;;;4.20;0.80;;;;;;;2.35;96.76;102034.66;5054959;28;20119;-50
2023/02/26 02:32:28;;;;;;;8.00;1.20;;;;;;;2.29;96.74;102029.75;5072331;28;20129;-52
2023/02/26 02:35:01;;;;;;;3.95;0.90;;;;;;;2.19;97.26;102039.25;5072294;28;20439;-50
2023/02/26 02:37:35;;;;;;;5.85;1.15;;;;;;;2.15;97.89;102038.56;5054226;28;20086;-51
2023/02/26 02:40:05;;;;;;;9.85;1.50;;;;;;;2.13;97.60;102045.81;5072407;28;20502;-49
2023/02/26 02:42:38;;;;;;;4.38;1.08;;;;;;;2.13;98.35;102055.56;5071904;28;20456;-52
2023/02/26 02:45:11;;;;;;;6.80;1.20;;;;;;;2.15;97.32;102056.31;5054449;28;20115;-49
2023/02/26 02:47:39;;;;;;;8.32;1.15;;;;;;;2.13;97.26;102060.88;5054025;28;20409;-51
2023/02/26 02:50:12;;;;;;;8.18;1.30;;;;;;;2.05;97.95;102055.19;5072011;28;20115;-50
2023/02/26 02:52:45;;;;;;;10.55;1.00;;;;;;;2.03;97.81;102065.06;5053894;28;20033;-49
2023/02/26 02:55:15;;;;;;;10.77;0.82;;;;;;;1.95;99.18;102066.41;5053810;28;20115;-49
2023/02/26 02:57:54;;;;;;;9.23;1.05;;;;;;;1.96;98.44;102069.91;5053626;28;20072;-49
2023/02/26 03:00:21;;;;;;;3.75;0.90;;;;;;;1.86;99.36;102069.63;5053917;28;20093;-50
2023/02/26 03:02:52;;;;;;;9.02;1.05;;;;;;;1.85;99.02;102065.28;5053623;28;20376;-51
2023/02/26 03:05:18;;;;;;;6.32;1.13;;;;;;;1.78;100.00;102066.59;5053761;28;20062;-49
2023/02/26 03:07:50;;;;;;;6.00;1.50;;;;;;;1.73;100.00;102077.47;5071502;28;20032;-50
2023/02/26 03:10:16;;;;;;;3.80;0.90;;;;;;;1.75;99.98;102083.56;5071437;28;20033;-52
2023/02/26 03:12:41;;;;;;;10.20;1.40;;;;;;;1.75;99.45;102086.22;5053309;28;20543;-50
2023/02/26 03:15:07;;;;;;;5.32;1.20;;;;;;;1.72;98.84;102083.75;5071189;28;20151;-50
2023/02/26 03:17:42;;;;;;;8.57;0.98;;;;;;;1.68;100.00;102086.69;5071243;28;20056;-50
2023/02/26 03:20:31;;;;;;;15.63;1.08;;;;;;;1.58;100.00;102080.22;5053336;28;20024;-50
2023/02/26 03:23:39;;;;;;;9.88;0.80;;;;;;;1.58;99.98;102090.84;5070931;28;20077;-52
2023/02/26 03:26:18;;;;;;;10.05;1.60;;;;;;;1.48;100.00;102088.75;4969689;28;20596;-50
2023/02/26 03:28:48;;;;;;;7.68;1.13;;;;;;;1.50;100.00;102089.53;5046221;28;20048;-49
2023/02/26 03:31:22;;;;;;;5.82;1.13;;;;;;;1.41;99.69;102090.06;5053119;28;20132;-50
2023/02/26 03:34:07;;;;;;;4.00;0.98;;;;;;;1.45;99.49;102096.91;5070452;28;20114;-50
2023/02/26 03:36:44;;;;;;;6.65;1.10;;;;;;;1.47;98.44;102094.13;5052807;28;20031;-49
2023/02/26 03:39:24;;;;;;;14.82;1.23;;;;;;;1.40;99.01;102104.28;5053202;28;20082;-49
2023/02/26 03:42:29;;;;;;;13.07;1.02;;;;;;;1.36;98.38;102101.91;5070771;28;20488;-50
2023/02/26 03:44:58;;;;;;;6.25;0.90;;;;;;;1.24;99.34;102101.69;4953475;28;20027;-50
2023/02/26 03:47:24;;;;;;;12.20;1.27;;;;;;;1.25;98.73;102110.50;5053546;28;20033;-52
2023/02/26 03:50:00;;;;;;;8.57;0.88;;;;;;;1.25;98.77;102110.50;5070735;28;20310;-51
2023/02/26 03:52:28;;;;;;;7.20;1.58;;;;;;;1.24;98.85;102108.78;5052524;28;20035;-50
2023/02/26 03:55:13;;;;;;;5.40;0.75;;;;;;;1.21;99.06;102109.84;5070751;28;20020;-50
2023/02/26 03:57:39;;;;;;;9.73;0.90;;;;;;;1.19;99.54;102105.56;5070557;28;20078;-50
2023/02/26 04:00:06;;;;;;;3.58;1.33;;;;;;;1.22;98.56;102119.47;5070648;28;20036;-52
2023/02/26 04:02:41;;;;;;;4.55;1.00;;;;;;;1.25;97.70;102121.09;5070369;28;20040;-51
2023/02/26 04:05:11;;;;;;;8.93;1.02;;;;;;;1.19;97.93;102118.81;5070587;28;20103;-51
2023/02/26 04:07:37;;;;;;;5.43;1.23;;;;;;;1.18;97.55;102120.59;5052780;28;20025;-49
2023/02/26 04:10:03;;;;;;;6.22;1.15;;;;;;;1.13;98.89;102127.97;5052583;28;20024;-49
2023/02/26 04:12:29;;;;;;;7.57;1.10;;;;;;;1.17;97.81;102121.53;5052655;28;20035;-49
2023/02/26 04:14:55;;;;;;;5.85;0.90;;;;;;;1.12;98.51;102130.72;5070485;28;20036;-51
2023/02/26 04:17:20;;;;;;;6.15;0.95;;;;;;;1.06;99.43;102135.44;5052445;28;20104;-50
2023/02/26 04:19:45;;;;;;;4.50;1.00;;;;;;;1.06;98.78;102140.72;5070452;28;20384;-49
2023/02/26 04:22:11;;;;;;;13.20;0.93;;;;;;;1.05;99.01;102135.50;5070326;28;20465;-50
2023/02/26 04:24:36;;;;;;;8.98;1.48;;;;;;;0.99;99.47;102144.66;5071655;28;20094;-50
2023/02/26 04:27:02;;;;;;;3.42;0.75;;;;;;;1.01;98.93;102148.09;5070647;28;20036;-49
2023/02/26 04:29:27;;;;;;;7.20;1.10;;;;;;;1.08;97.95;102146.81;5070535;28;20035;-50
2023/02/26 04:31:53;;;;;;;12.05;0.80;;;;;;;1.04;98.13;102150.56;5070090;28;20123;-49
2023/02/26 04:34:18;;;;;;;9.27;1.00;;;;;;;1.07;97.15;102146.88;5070237;28;20081;-50
2023/02/26 04:36:44;;;;;;;5.07;0.80;;;;;;;1.00;97.46;102145.50;5070265;28;20020;-48
2023/02/26 04:39:09;;;;;;;10.50;1.55;;;;;;;1.05;97.74;102151.41;5070060;28;20357;-50
2023/02/26 04:41:36;;;;;;;8.75;1.00;;;;;;;1.01;97.76;102150.75;5070278;28;20033;-49
2023/02/26 04:44:02;;;;;;;7.65;1.02;;;;;;;1.03;96.81;102153.31;5070216;28;20029;-49
2023/02/26 04:46:28;;;;;;;9.93;1.00;;;;;;;1.00;98.09;102162.31;5056019;28;20017;-48
2023/02/26 04:48:53;;;;;;;5.40;0.73;;;;;;;0.93;98.03;102162.72;5074099;28;20395;-51
2023/02/26 04:51:18;;;;;;;7.03;0.98;;;;;;;0.98;97.83;102171.28;5074164;28;20073;-52
2023/02/26 04:53:44;;;;;;;8.02;0.80;;;;;;;0.94;97.64;102170.59;5073915;28;20100;-50
2023/02/26 04:56:09;;;;;;;10.02;1.00;;;;;;;0.96;97.43;102171.34;5073997;28;20025;-49
2023/02/26 04:58:34;;;;;;;9.93;1.98;;;;;;;0.99;96.97;102171.19;5073705;28;20020;-50
2023/02/26 05:01:00;;;;;;;9.55;1.02;;;;;;;0.98;98.29;102182.72;5074010;28;20390;-49
2023/02/26 05:03:25;;;;;;;4.78;1.00;;;;;;;1.03;97.71;102175.38;5073882;28;20063;-49
2023/02/26 05:05:50;;;;;;;10.38;1.00;;;;;;;1.01;97.33;102179.06;5074052;28;20033;-49
2023/02/26 05:08:16;;;;;;;8.93;0.85;;;;;;;1.04;97.63;102181.53;5039152;28;20020;-50
2023/02/26 05:10:41;;;;;;;7.25;0.90;;;;;;;0.96;97.67;102181.97;5073860;28;20539;-49
2023/02/26 05:13:07;;;;;;;7.45;0.93;;;;;;;1.00;97.38;102185.28;5073967;28;20032;-49
2023/02/26 05:15:32;;;;;;;4.78;0.82;;;;;;;0.95;98.41;102180.25;5056178;28;20383;-49
2023/02/26 05:17:58;;;;;;;7.05;1.33;;;;;;;1.06;97.03;102177.84;5076680;28;20082;-49
2023/02/26 05:20:23;;;;;;;9.23;1.10;;;;;;;1.07;96.55;102182.19;5077168;28;20025;-51
2023/02/26 05:22:48;;;;;;;3.67;0.85;;;;;;;1.02;96.61;102188.72;5073155;28;20107;-49
2023/02/26 05:25:14;;;;;;;3.38;0.68;;;;;;;0.98;97.61;102184.53;5076553;28;20035;-48
2023/02/26 05:27:41;;;;;;;6.15;1.05;;;;;;;0.98;98.14;102197.78;5073826;28;20543;-49
2023/02/26 05:30:08;;;;;;;7.07;1.00;;;;;;;0.98;98.03;102198.63;5072922;28;20032;-49
2023/02/26 05:32:33;;;;;;;8.18;1.38;;;;;;;0.99;98.01;102197.69;5073352;28;20491;-49
2023/02/26 05:34:58;;;;;;;8.75;0.90;;;;;;;0.95;98.25;102204.13;5072207;28;20025;-50
2023/02/26 05:37:24;;;;;;;7.60;1.17;;;;;;;0.97;97.46;102204.88;5073493;28;20475;-48
2023/02/26 05:39:49;;;;;;;2.58;0.95;;;;;;;0.97;97.57;102207.50;5073300;28;20442;-48
2023/02/26 05:42:14;;;;;;;4.57;0.65;;;;;;;1.00;98.09;102215.31;5073810;28;20036;-50
2023/02/26 05:44:40;;;;;;;8.48;1.10;;;;;;;0.95;98.30;102211.19;5073263;28;20028;-49
2023/02/26 05:47:05;;;;;;;7.63;1.20;;;;;;;0.91;98.79;102213.16;5072252;28;20472;-49
2023/02/26 05:49:31;;;;;;;2.08;0.50;;;;;;;0.91;98.72;102218.47;5073141;28;20379;-49
2023/02/26 05:51:56;;;;;;;7.78;1.48;;;;;;;0.89;99.14;102223.00;5055022;28;20029;-49
2023/02/26 05:54:21;;;;;;;6.68;0.70;;;;;;;0.81;99.51;102218.13;5073625;28;20456;-48
2023/02/26 05:56:47;;;;;;;2.13;0.63;;;;;;;0.87;99.49;102227.56;5073018;28;20047;-49
2023/02/26 05:59:12;;;;;;;4.90;0.70;;;;;;;0.80;99.77;102226.16;5073657;28;20384;-50
2023/02/26 06:01:37;;;;;;;8.38;0.63;;;;;;;0.80;99.90;102226.16;5073707;28;20035;-51
2023/02/26 06:04:04;;;;;;;5.70;1.00;;;;;;;0.80;99.64;102234.13;5073226;28;20036;-50
2023/02/26 06:06:30;;;;;;;6.70;1.23;;;;;;;0.78;100.00;102239.50;5073325;28;20244;-50
2023/02/26 06:08:55;;;;;;;5.60;0.70;;;;;;;0.76;100.00;102225.47;5073116;28;20051;-49
2023/02/26 06:11:21;;;;;;;8.02;0.93;;;;;;;0.77;100.00;102242.25;5072231;28;20115;-50
2023/02/26 06:13:46;;;;;;;3.03;0.63;;;;;;;0.82;100.00;102248.16;5073188;28;20024;-49
2023/02/26 06:16:11;;;;;;;5.45;0.80;;;;;;;0.81;100.00;102249.06;5072345;28;20025;-48
2023/02/26 06:18:37;;;;;;;5.70;0.90;;;;;;;0.78;100.00;102254.53;5073230;28;20017;-50
2023/02/26 06:21:02;;;;;;;9.20;1.02;;;;;;;0.78;100.00;102258.03;5073359;28;20186;-50
2023/02/26 06:23:28;;;;;;;9.45;0.82;;;;;;;0.80;100.00;102265.94;5073810;28;20475;-49
2023/02/26 06:25:53;;;;;;;15.95;0.90;;;;;;;0.79;100.00;102266.84;5073149;28;20414;-50
2023/02/26 06:28:19;;;;;;;4.32;0.70;;;;;;;0.79;100.00;102278.31;5071692;28;20060;-51
2023/02/26 06:30:44;;;;;;;4.63;0.93;;;;;;;0.80;100.00;102273.88;5072787;28;20416;-50
2023/02/26 06:33:10;;;;;;;4.82;1.02;;;;;;;0.81;100.00;102280.88;5072957;28;20060;-49
2023/02/26 06:35:35;;;;;;;8.45;1.83;;;;;;;0.80;100.00;102285.31;5072581;28;20032;-49
2023/02/26 06:38:01;;;;;;;6.00;1.30;;;;;;;0.81;100.00;102292.31;5072838;28;20020;-49
2023/02/26 06:40:26;;;;;;;12.25;1.15;;;;;;;0.79;100.00;102288.03;5072425;28;20107;-52
2023/02/26 06:42:51;;;;;;;4.43;1.00;;;;;;;0.76;100.00;102301.47;5070998;28;20033;-49
2023/02/26 06:45:17;;;;;;;6.45;1.20;;;;;;;0.74;100.00;102306.00;5072076;28;20032;-52
2023/02/26 06:47:42;;;;;;;3.22;0.60;;;;;;;0.75;100.00;102302.41;5071966;28;20510;-49
2023/02/26 06:50:09;;;;;;;7.22;0.88;;;;;;;0.80;100.00;102301.22;5072133;28;20550;-48
2023/02/26 06:52:34;;;;;;;6.82;0.82;;;;;;;0.82;100.00;102309.97;5072130;28;20435;-50
2023/02/26 06:55:00;;;;;;;7.70;0.93;;;;;;;0.96;100.00;102317.16;5071824;28;20021;-53
2023/02/26 06:57:25;;;;;;;9.15;0.80;;;;;;;1.16;100.00;102320.50;5071916;28;20087;-50
2023/02/26 06:59:50;;;;;;;7.60;1.42;;;;;;;1.56;100.00;102328.91;5071018;28;20150;-50
2023/02/26 07:02:18;;;;;;;7.55;0.70;;;;;;;1.78;97.63;102331.19;5091270;28;20073;-51
2023/02/26 07:04:43;;;;;;;2.65;0.60;;;;;;;1.81;97.53;102337.16;5090360;28;20115;-51
2023/02/26 07:07:09;;;;;;;4.82;0.73;;;;;;;1.97;96.09;102332.69;5072654;28;20110;-49
2023/02/26 07:09:35;;;;;;;8.40;1.02;;;;;;;2.16;95.38;102343.09;5091416;28;20028;-50
2023/02/26 07:12:00;;;;;;;2.20;0.60;;;;;;;2.39;94.33;102354.97;5091888;28;20074;-52
2023/02/26 07:14:25;;;;;;;6.35;0.90;;;;;;;2.53;92.35;102358.66;5091679;28;20451;-50
2023/02/26 07:16:51;;;;;;;4.72;0.80;;;;;;;2.88;90.93;102355.63;5091566;28;20635;-50
2023/02/26 07:19:16;;;;;;;8.00;1.00;;;;;;;3.20;89.23;102357.13;5091601;28;20395;-52
2023/02/26 07:21:41;;;;;;;3.85;0.88;;;;;;;3.39;87.92;102358.63;5091685;28;20516;-51
2023/02/26 07:24:07;;;;;;;6.95;0.65;;;;;;;3.45;86.64;102360.88;5091633;28;20360;-51
2023/02/26 07:26:32;;;;;;;3.70;0.68;;;;;;;3.50;86.06;102359.66;5091525;28;20024;-51
2023/02/26 07:28:58;;;;;;;6.30;1.30;;;;;;;3.74;85.01;102361.69;5091465;28;20048;-51
2023/02/26 07:31:23;;;;;;;4.43;1.38;;;;;;;3.91;84.02;102360.56;5091251;28;20032;-49
2023/02/26 07:33:48;;;;;;;5.03;0.77;;;;;;;3.87;83.08;102369.69;5091671;28;20090;-49
2023/02/26 07:36:14;;;;;;;4.32;0.70;;;;;;;3.77;83.10;102371.28;5091314;28;20092;-49
2023/02/26 07:38:39;;;;;;;7.60;1.00;;;;;;;3.65;83.77;102387.06;5091193;28;20012;-49
2023/02/26 07:41:04;;;;;;;2.40;0.73;;;;;;;3.63;82.72;102396.97;5091088;28;20055;-51
2023/02/26 07:43:30;;;;;;;6.88;1.00;;;;;;;3.74;83.65;102396.31;5091090;28;20515;-48
2023/02/26 07:45:55;;;;;;;5.38;1.17;;;;;;;4.24;81.88;102397.44;5091134;28;20495;-50
2023/02/26 07:48:20;;;;;;;4.65;0.60;;;;;;;4.85;79.72;102392.41;5091209;28;20549;-48
2023/02/26 07:50:46;;;;;;;4.05;0.95;;;;;;;5.32;76.08;102395.34;5091108;28;20032;-52
2023/02/26 07:53:11;;;;;;;6.35;1.00;;;;;;;5.45;74.38;102398.84;5073527;28;20032;-51
2023/02/26 07:55:37;;;;;;;7.63;0.80;;;;;;;5.61;73.18;102395.91;5072730;28;20472;-50
2023/02/26 07:58:02;;;;;;;4.60;0.70;;;;;;;5.86;73.14;102395.81;5090887;28;20035;-50
2023/02/26 08:00:27;;;;;;;4.53;1.08;;;;;;;6.68;69.72;102403.97;5072900;28;20493;-52
2023/02/26 08:02:53;;;;;;;5.78;0.90;;;;;;;7.87;66.09;102406.13;5090883;28;20048;-53
2023/02/26 08:05:18;;;;;;;4.20;0.93;;;;;;;8.71;63.12;102411.66;5091168;28;20031;-49
2023/02/26 08:07:43;;;;;;;10.07;1.48;;;;;;;9.80;59.11;102413.69;5091695;28;20036;-50
2023/02/26 08:10:09;;;;;;;3.58;0.90;;;;;;;10.41;54.71;102418.03;5091428;28;20051;-51
2023/02/26 08:12:35;;;;;;;7.18;1.33;;;;;;;10.64;53.67;102406.97;5090922;28;20024;-50
2023/02/26 08:15:01;;;;;;;4.30;0.75;;;;;;;11.02;51.39;102424.88;5091261;28;20035;-52
2023/02/26 08:17:26;;;;;;;5.97;1.27;;;;;;;11.47;51.21;102420.59;5090953;28;20467;-53
2023/02/26 08:19:52;;;;;;;6.60;1.42;;;;;;;11.84;48.65;102439.41;5090979;28;20028;-50
2023/02/26 08:22:18;;;;;;;3.50;1.10;;;;;;;12.08;46.56;102437.03;5090852;28;20540;-51
2023/02/26 08:24:43;;;;;;;4.05;1.10;;;;;;;11.63;45.82;102435.13;5072963;28;20028;-51
2023/02/26 08:27:08;;;;;;;3.78;1.13;;;;;;;10.57;46.93;102433.59;5090111;28;20152;-50
2023/02/26 08:29:34;;;;;;;6.53;1.48;;;;;;;10.24;47.95;102449.16;5090653;28;20026;-49
2023/02/26 08:31:59;;;;;;;7.38;1.05;;;;;;;10.73;47.31;102450.03;5090267;28;20335;-50
2023/02/26 08:34:24;;;;;;;5.95;1.40;;;;;;;11.05;46.33;102447.97;5090323;28;20379;-50
2023/02/26 08:36:50;;;;;;;4.05;0.90;;;;;;;11.07;45.31;102446.84;5090300;28;20024;-49
2023/02/26 08:39:15;;;;;;;4.40;1.00;;;;;;;10.62;45.47;102460.94;5090413;28;20439;-49
2023/02/26 08:41:40;;;;;;;3.75;0.90;;;;;;;10.76;46.22;102457.81;5072208;28;20032;-51
2023/02/26 08:44:07;;;;;;;13.88;1.50;;;;;;;11.17;45.05;102463.84;5090398;28;20020;-49
2023/02/26 08:46:32;;;;;;;6.00;1.63;;;;;;;11.59;43.42;102474.19;5072672;28;20028;-51
2023/02/26 08:48:58;;;;;;;6.63;1.48;;;;;;;12.10;43.06;102474.66;5090522;28;20482;-51
2023/02/26 08:51:23;;;;;;;7.18;0.80;;;;;;;12.93;41.19;102483.34;5090786;28;20032;-49
2023/02/26 08:53:49;;;;;;;7.47;0.80;;;;;;;12.39;39.43;102487.09;5090284;28;20024;-48
2023/02/26 08:56:15;;;;;;;12.25;1.25;;;;;;;11.32;40.57;102488.50;5090132;28;20038;-49
2023/02/26 08:58:40;;;;;;;5.68;0.80;;;;;;;11.41;40.91;102482.19;5089855;28;20115;-49
2023/02/26 09:01:06;;;;;;;6.95;1.35;;;;;;;10.57;41.15;102484.75;5071994;28;20031;-49
2023/02/26 09:03:31;;;;;;;4.15;0.80;;;;;;;10.37;42.30;102494.66;5090048;28;20020;-49
2023/02/26 09:05:56;;;;;;;5.50;0.85;;;;;;;10.43;41.45;102496.81;5071867;28;20168;-49
2023/02/26 09:08:22;;;;;;;5.93;0.73;;;;;;;10.50;42.64;102505.16;5090088;28;20059;-50
2023/02/26 09:10:48;;;;;;;2.30;0.80;;;;;;;10.83;40.85;102511.13;5090337;28;20312;-49
2023/02/26 09:13:13;;;;;;;5.93;1.25;;;;;;;11.29;40.19;102494.16;5089864;28;20016;-51
2023/02/26 09:15:39;;;;;;;2.50;0.80;;;;;;;11.20;40.75;102506.66;5089961;28;20364;-49
2023/02/26 09:18:05;;;;;;;5.30;1.15;;;;;;;10.91;40.08;102517.47;5089874;28;20032;-49
2023/02/26 09:20:30;;;;;;;7.65;1.00;;;;;;;11.10;40.71;102500.44;5089856;28;20024;-49
2023/02/26 09:22:55;;;;;;;2.78;0.85;;;;;;;10.52;40.46;102514.78;5089690;28;20032;-50
2023/02/26 09:25:22;;;;;;;4.20;0.77;;;;;;;10.32;41.49;102532.78;5089916;28;20446;-48
2023/02/26 09:27:48;;;;;;;5.43;0.75;;;;;;;10.44;41.83;102529.94;5071308;28;20063;-49
2023/02/26 09:30:14;;;;;;;6.20;0.70;;;;;;;10.61;41.52;102542.72;5072348;28;20028;-48
2023/02/26 09:32:39;;;;;;;8.25;0.95;;;;;;;10.65;41.26;102527.97;5093367;28;20047;-49
2023/02/26 09:35:05;;;;;;;5.45;0.88;;;;;;;10.67;40.80;102531.38;5093674;28;20482;-50
2023/02/26 09:37:30;;;;;;;4.63;1.15;;;;;;;10.35;40.88;102541.53;5075423;28;20028;-50
2023/02/26 09:39:56;;;;;;;3.80;0.57;;;;;;;10.01;41.33;102533.78;5093948;28;20099;-50
2023/02/26 09:42:48;;;;;;;2.15;0.52;;;;;;;9.71;42.36;102546.25;5093530;28;20368;-51
2023/02/26 09:45:35;;;;;;;5.28;0.98;;;;;;;9.53;42.20;102547.84;5064368;28;20111;-49
2023/02/26 09:48:03;;;;;;;2.57;0.60;;;;;;;9.25;41.97;102557.47;5072713;28;20037;-49
2023/02/26 09:50:47;;;;;;;11.77;1.55;;;;;;;9.21;42.36;102557.69;5072827;28;20032;-48
2023/02/26 09:53:23;;;;;;;7.80;0.52;;;;;;;9.33;42.63;102563.03;5055273;28;20051;-49
2023/02/26 09:55:51;;;;;;;3.42;0.70;;;;;;;9.68;42.88;102551.91;5055264;28;20059;-50
2023/02/26 09:58:32;;;;;;;2.90;0.73;;;;;;;10.38;41.55;102560.13;5056473;28;20541;-49
2023/02/26 10:01:09;;;;;;;2.45;0.73;;;;;;;10.32;41.28;102574.94;5073727;28;20052;-50
2023/02/26 10:03:53;;;;;;;4.93;0.60;;;;;;;9.60;42.18;102568.69;5073060;28;20060;-50
2023/02/26 10:06:36;;;;;;;5.63;0.75;;;;;;;9.03;43.86;102564.66;5055317;28;20109;-49
2023/02/26 10:09:24;;;;;;;6.40;1.30;;;;;;;8.88;44.24;102574.84;5072904;28;20036;-48
2023/02/26 10:12:04;;;;;;;5.88;1.42;;;;;;;8.93;44.23;102580.69;5073475;28;20021;-47
2023/02/26 10:14:46;;;;;;;6.20;0.90;;;;;;;8.91;44.84;102581.81;5055369;28;20387;-49
2023/02/26 10:17:24;;;;;;;3.00;0.52;;;;;;;8.51;44.23;102580.59;5055245;28;20040;-50
2023/02/26 10:19:53;;;;;;;2.38;0.50;;;;;;;8.51;44.38;102591.31;5072829;28;20062;-50
2023/02/26 10:22:36;;;;;;;2.75;0.63;;;;;;;8.41;44.27;102595.72;5072899;28;20115;-48
2023/02/26 10:25:10;;;;;;;4.15;0.68;;;;;;;8.48;44.87;102588.91;5073187;28;20467;-48
2023/02/26 10:28:03;;;;;;;2.33;0.60;;;;;;;8.24;45.21;102602.44;5054965;28;20051;-47
2023/02/26 10:30:54;;;;;;;2.83;0.80;;;;;;;8.20;46.19;102586.72;5072550;28;20028;-50
2023/02/26 10:33:38;;;;;;;3.20;0.45;;;;;;;8.28;46.53;102603.03;5068205;28;20051;-49
2023/02/26 10:36:12;;;;;;;3.22;1.02;;;;;;;7.82;46.76;102604.00;5057071;28;20027;-50
2023/02/26 10:38:37;;;;;;;3.72;0.75;;;;;;;7.58;46.93;102596.94;5072854;28;20031;-50
2023/02/26 10:41:06;;;;;;;3.20;0.95;;;;;;;7.61;47.00;102596.69;5072828;28;20021;-50
2023/02/26 10:43:43;;;;;;;4.32;0.88;;;;;;;7.76;48.30;102607.19;5055456;28;20028;-49
2023/02/26 10:46:16;;;;;;;2.22;0.57;;;;;;;8.04;46.91;102613.91;5073395;28;20386;-50
2023/02/26 10:49:13;;;;;;;1.80;0.70;;;;;;;7.95;47.14;102612.78;5073342;28;20488;-50
2023/02/26 10:51:39;;;;;;;3.35;0.70;;;;;;;7.67;48.98;102603.41;5075050;28;20028;-51
2023/02/26 10:54:33;;;;;;;3.78;0.80;;;;;;;7.53;47.79;102620.56;5075705;28;20029;-52
2023/02/26 10:56:58;;;;;;;2.03;0.63;;;;;;;7.60;48.36;102616.41;5048820;28;20099;-49
2023/02/26 10:59:24;;;;;;;2.22;0.70;;;;;;;7.55;48.17;102623.09;5073646;28;20691;-48
2023/02/26 11:01:50;;;;;;;3.75;0.50;;;;;;;7.47;48.87;102618.31;5072999;28;20100;-49
2023/02/26 11:04:18;;;;;;;4.00;0.52;;;;;;;7.82;48.76;102622.75;5054078;28;20403;-49
2023/02/26 11:06:58;;;;;;;5.57;0.75;;;;;;;8.47;47.74;102616.69;5054340;28;20077;-48
2023/02/26 11:09:27;;;;;;;4.70;0.77;;;;;;;8.66;46.51;102625.91;5073135;28;20048;-49
2023/02/26 11:11:54;;;;;;;2.33;0.70;;;;;;;8.67;47.59;102623.13;5055165;28;20032;-50
2023/02/26 11:14:21;;;;;;;2.08;0.60;;;;;;;8.60;48.51;102623.75;5054296;28;20127;-50
2023/02/26 11:16:50;;;;;;;2.35;0.50;;;;;;;8.41;48.14;102621.72;5072136;28;20038;-49
2023/02/26 11:19:16;;;;;;;4.40;0.70;;;;;;;8.44;49.04;102622.31;5055233;28;20025;-49
2023/02/26 11:21:44;;;;;;;1.17;0.52;;;;;;;8.10;47.25;102619.63;5071690;28;20167;-49
2023/02/26 11:24:18;;;;;;;3.40;0.77;;;;;;;7.45;49.13;102628.28;5054082;28;20024;-50
2023/02/26 11:26:48;;;;;;;4.18;1.25;;;;;;;7.31;49.44;102620.47;5055485;28;20416;-50
2023/02/26 11:29:16;;;;;;;2.95;1.42;;;;;;;7.32;49.87;102616.81;5038150;28;20036;-49
2023/02/26 11:31:42;;;;;;;3.90;1.40;;;;;;;7.61;51.00;102607.41;5053916;28;20047;-50
2023/02/26 11:34:10;;;;;;;3.97;0.68;;;;;;;8.09;48.82;102612.56;5071483;28;20045;-51
2023/02/26 11:36:39;;;;;;;2.25;0.50;;;;;;;8.48;49.36;102606.84;5071125;28;20544;-50
2023/02/26 11:39:17;;;;;;;2.75;0.73;;;;;;;8.55;47.42;102613.38;5053400;28;20093;-50